Time;durP1;ratioP1;P1;durP2;ratioP2;P2;SDS_P1;SDS_P2;PMS_P1;PMS_P2;Temp;Humidity;BMP_temperature;BMP_pressure;BME280_temperature;BME280_humidity;BME280_pressure;Samples;Min_cycle;Max_cycle;Signal;HPM_P1;HPM_P2
2022/05/22 11:02:31;;;;;;;14.90;3.50;;;;;;;22.95;43.65;100969.11;2426999;72;24618;-76
2022/05/22 11:05:34;;;;;;;22.87;3.60;;;;;;;22.96;43.40;100973.98;2351225;75;51443;-76
2022/05/22 11:08:37;;;;;;;23.35;4.25;;;;;;;22.94;43.23;100978.25;2335469;76;50368;-76
2022/05/22 11:11:39;;;;;;;20.75;3.33;;;;;;;22.96;43.03;100974.81;2315680;75;51371;-76
2022/05/22 11:14:41;;;;;;;26.35;3.60;;;;;;;22.99;43.08;100979.86;2287168;76;50792;-76
2022/05/22 11:17:43;;;;;;;21.70;3.60;;;;;;;23.06;43.04;100970.41;2334889;76;51457;-76
2022/05/22 11:20:49;;;;;;;28.45;3.90;;;;;;;23.13;42.91;100965.03;2289351;76;50584;-76
2022/05/22 11:24:14;;;;;;;21.93;3.12;;;;;;;23.16;42.83;100964.09;2310774;76;52589;-76
2022/05/22 11:27:22;;;;;;;17.82;3.42;;;;;;;23.19;42.74;100958.27;2335187;76;51425;-76
2022/05/22 11:30:47;;;;;;;23.57;3.70;;;;;;;23.21;42.68;100964.30;2335084;75;51393;-76
2022/05/22 11:34:05;;;;;;;17.43;3.10;;;;;;;23.24;42.61;100955.78;2327879;76;50711;-76
2022/05/22 11:37:22;;;;;;;19.02;3.60;;;;;;;23.28;42.53;100962.14;2334470;76;51559;-76
2022/05/22 11:40:49;;;;;;;12.20;3.05;;;;;;;23.30;42.45;100946.05;2312487;76;51850;-75
2022/05/22 11:44:10;;;;;;;16.62;3.15;;;;;;;23.32;42.39;100937.20;2334551;76;50604;-76
2022/05/22 11:47:27;;;;;;;14.07;3.25;;;;;;;23.35;42.34;100935.95;2334578;76;50606;-76
2022/05/22 11:50:41;;;;;;;22.55;3.08;;;;;;;23.35;42.33;100942.21;2311676;76;50916;-76
2022/05/22 11:53:59;;;;;;;14.87;2.80;;;;;;;23.34;42.38;100938.36;2334033;76;50835;-76
2022/05/22 11:57:21;;;;;;;16.32;3.50;;;;;;;23.34;42.33;100944.58;2334555;76;50150;-76
2022/05/22 12:00:30;;;;;;;12.23;2.70;;;;;;;23.33;42.34;100955.61;2332424;76;50361;-75
2022/05/22 12:03:50;;;;;;;17.65;2.75;;;;;;;23.33;42.39;100948.86;2319398;76;51402;-75
2022/05/22 12:07:18;;;;;;;12.33;2.85;;;;;;;23.34;42.38;100941.05;2319551;76;50412;-75
2022/05/22 12:10:29;;;;;;;17.75;2.90;;;;;;;23.35;42.36;100935.95;2319546;76;50665;-76
2022/05/22 12:13:47;;;;;;;15.90;2.50;;;;;;;23.36;42.33;100937.11;2318777;76;50751;-75
2022/05/22 12:16:55;;;;;;;10.58;2.42;;;;;;;23.38;42.31;100932.86;2306473;76;49562;-75
2022/05/22 12:20:22;;;;;;;11.53;2.98;;;;;;;23.37;42.34;100925.26;2318791;76;51669;-76
2022/05/22 12:23:30;;;;;;;13.93;2.67;;;;;;;23.37;42.31;100924.43;2318655;76;51615;-75
2022/05/22 12:26:32;;;;;;;13.53;2.27;;;;;;;23.37;42.31;100931.19;2318798;76;50689;-75
2022/05/22 12:29:59;;;;;;;11.75;2.30;;;;;;;23.36;42.30;100929.01;2306776;76;52288;-75
2022/05/22 12:33:08;;;;;;;9.85;2.37;;;;;;;23.36;42.29;100925.48;2306399;76;51299;-75
2022/05/22 12:36:10;;;;;;;11.75;2.60;;;;;;;23.35;42.32;100923.80;2318707;76;50192;-75
2022/05/22 12:39:14;;;;;;;10.43;2.08;;;;;;;23.36;42.28;100920.91;2308983;76;50618;-75
2022/05/22 12:42:19;;;;;;;8.80;2.15;;;;;;;23.38;42.25;100920.71;2288912;76;50964;-75
2022/05/22 12:45:22;;;;;;;10.72;2.37;;;;;;;23.38;42.26;100915.31;2319107;76;50367;-75
2022/05/22 12:48:37;;;;;;;9.30;2.05;;;;;;;23.37;42.33;100916.33;2306701;76;51423;-75
2022/05/22 12:51:41;;;;;;;10.03;2.35;;;;;;;23.39;42.29;100914.26;2318769;76;50552;-75
2022/05/22 12:54:43;;;;;;;10.08;2.40;;;;;;;23.43;42.19;100906.06;2306660;76;51430;-75
2022/05/22 12:57:57;;;;;;;8.30;2.65;;;;;;;23.44;42.21;100911.23;2283232;76;51211;-75
2022/05/22 13:00:59;;;;;;;7.33;2.30;;;;;;;23.44;42.21;100907.71;2310339;76;50609;-75
2022/05/22 13:04:09;;;;;;;7.67;1.92;;;;;;;23.54;42.05;100904.06;2341882;76;51446;-75
2022/05/22 13:07:14;;;;;;;10.00;2.42;;;;;;;23.54;42.06;100904.06;2322106;76;50017;-75
2022/05/22 13:10:25;;;;;;;8.30;2.22;;;;;;;23.51;42.08;100893.69;2341910;76;50771;-75
2022/05/22 13:13:32;;;;;;;8.30;2.22;;;;;;;23.48;42.13;100894.94;2341703;76;51508;-76
2022/05/22 13:16:37;;;;;;;6.70;2.05;;;;;;;23.45;42.10;100882.36;2341436;75;50743;-76
2022/05/22 13:19:52;;;;;;;;;;;;;;;23.46;42.16;100884.86;2341966;75;50657;-76
2022/05/22 13:23:06;;;;;;;5.83;2.20;;;;;;;23.49;42.11;100879.55;2341949;76;50739;-76
2022/05/22 13:26:23;;;;;;;9.25;2.20;;;;;;;23.49;42.09;100879.55;2339967;75;51548;-76
2022/05/22 13:29:27;;;;;;;6.12;2.30;;;;;;;23.50;42.07;100865.00;2342115;76;50338;-76
2022/05/22 13:32:34;;;;;;;6.00;1.72;;;;;;;23.53;42.02;100870.00;2304508;76;50058;-76
2022/05/22 13:35:39;;;;;;;6.47;2.30;;;;;;;23.51;42.03;100877.48;2342023;76;51440;-76
2022/05/22 13:38:41;;;;;;;6.47;1.70;;;;;;;23.54;41.97;100875.70;2342305;75;51604;-75
2022/05/22 13:41:49;;;;;;;7.65;1.98;;;;;;;23.52;41.98;100867.50;2304221;76;52328;-75
2022/05/22 13:45:10;;;;;;;4.65;1.98;;;;;;;23.51;41.98;100869.38;2341817;76;50708;-75
2022/05/22 13:48:21;;;;;;;6.50;1.90;;;;;;;23.52;41.92;100866.97;2322948;76;50276;-75
2022/05/22 13:54:55;;;;;;;5.75;1.70;;;;;;;23.51;41.93;100869.38;2342358;76;22346;-76
2022/05/22 13:58:02;;;;;;;5.83;1.82;;;;;;;23.51;41.88;100863.98;2304471;76;49528;-76
2022/05/22 14:01:08;;;;;;;4.08;1.82;;;;;;;23.53;41.84;100854.30;2341809;76;50064;-76
2022/05/22 14:04:10;;;;;;;5.35;1.80;;;;;;;23.54;41.84;100851.39;2341619;75;50182;-76
2022/05/22 14:07:18;;;;;;;4.97;1.77;;;;;;;23.55;41.66;100860.32;2304485;76;49699;-76
2022/05/22 14:10:37;;;;;;;5.35;1.90;;;;;;;23.54;41.59;100855.45;2341494;75;50385;-76
2022/05/22 14:13:41;;;;;;;3.27;1.40;;;;;;;23.54;41.75;100850.05;2341794;76;50142;-76
2022/05/22 14:16:44;;;;;;;4.05;1.67;;;;;;;23.54;41.74;100852.75;2320835;76;50465;-76
2022/05/22 14:19:48;;;;;;;4.35;1.57;;;;;;;23.55;41.71;100852.22;2321873;76;50323;-76
2022/05/22 14:22:55;;;;;;;3.35;1.80;;;;;;;23.55;41.64;100840.89;2305338;76;50020;-76
2022/05/22 14:25:59;;;;;;;6.30;1.60;;;;;;;23.56;41.60;100849.32;2339000;76;51574;-76
2022/05/22 14:29:02;;;;;;;3.27;1.52;;;;;;;23.56;41.50;100839.05;2342133;75;50700;-76
2022/05/22 14:32:04;;;;;;;4.25;2.17;;;;;;;23.55;41.52;100839.54;2341955;76;50028;-76
2022/05/22 14:35:09;;;;;;;4.70;1.67;;;;;;;23.55;41.49;100831.44;2322332;76;51471;-76
2022/05/22 14:38:22;;;;;;;3.80;1.60;;;;;;;23.55;41.54;100828.73;2342071;75;50689;-76
2022/05/22 14:41:28;;;;;;;2.65;1.65;;;;;;;23.55;41.46;100819.80;2296684;76;50338;-76
2022/05/22 14:44:32;;;;;;;4.55;2.10;;;;;;;23.55;41.49;100826.03;2322498;76;50716;-75
2022/05/22 14:47:34;;;;;;;3.05;1.52;;;;;;;23.55;41.53;100827.91;2342237;76;50376;-76
2022/05/22 14:50:37;;;;;;;4.62;1.62;;;;;;;23.54;41.42;100821.69;2342300;75;50625;-75
2022/05/22 14:53:39;;;;;;;3.40;1.55;;;;;;;23.55;41.41;100824.69;2342024;76;50716;-76
2022/05/22 14:56:44;;;;;;;4.55;1.80;;;;;;;23.54;41.36;100818.98;2342222;75;51502;-76
2022/05/22 14:59:52;;;;;;;3.20;1.77;;;;;;;23.54;41.39;100821.69;2342356;76;51528;-77
2022/05/22 15:03:06;;;;;;;2.45;1.30;;;;;;;23.56;41.36;100822.84;2315097;75;50357;-76
2022/05/22 15:06:08;;;;;;;3.35;1.50;;;;;;;23.56;41.30;100822.31;2318495;76;50510;-75
2022/05/22 15:09:11;;;;;;;6.22;1.77;;;;;;;23.56;41.35;100816.08;2319025;76;50571;-75
2022/05/22 15:12:13;;;;;;;3.00;1.30;;;;;;;23.56;41.36;100815.55;2289732;76;49491;-77
2022/05/22 15:15:33;;;;;;;4.75;1.82;;;;;;;23.56;41.24;100809.33;2318873;76;51515;-75
2022/05/22 15:25:52;;;;;;;4.20;1.77;;;;;;;23.57;41.26;100800.17;2319138;76;22172;-76
2022/05/22 15:28:54;;;;;;;3.45;1.52;;;;;;;23.55;41.23;100796.32;2318766;76;50663;-76
2022/05/22 15:32:14;;;;;;;3.15;1.65;;;;;;;23.57;41.23;100794.24;2318596;76;51431;-76
2022/05/22 15:35:19;;;;;;;3.62;1.40;;;;;;;23.57;41.25;100787.48;2318744;76;50686;-76
2022/05/22 15:38:31;;;;;;;;;;;;;;;23.56;41.20;100780.44;2309178;76;50155;-76
2022/05/22 15:41:46;;;;;;;2.00;1.40;;;;;;;23.57;41.19;100783.97;2318874;76;51439;-76
2022/05/22 15:45:05;;;;;;;3.37;1.60;;;;;;;23.57;41.19;100782.09;2318898;76;50222;-76
2022/05/22 15:51:31;;;;;;;;;;;;;;;23.57;41.05;100778.03;2322117;76;22764;-77
2022/05/22 15:54:33;;;;;;;4.08;1.70;;;;;;;23.58;41.12;100776.16;2331766;76;51362;-76
2022/05/22 15:57:35;;;;;;;2.62;1.22;;;;;;;23.58;41.15;100775.66;2309061;76;50270;-77
2022/05/22 16:00:37;;;;;;;2.60;1.30;;;;;;;23.59;41.07;100776.48;2318878;76;50572;-77
2022/05/22 16:03:48;;;;;;;3.72;1.70;;;;;;;23.58;40.98;100764.86;2331736;76;51569;-77
2022/05/22 16:06:50;;;;;;;3.50;1.32;;;;;;;23.60;41.04;100765.98;2304670;76;50919;-77
2022/05/22 16:09:52;;;;;;;2.72;1.57;;;;;;;23.59;41.09;100766.50;2322211;76;51425;-77
2022/05/22 16:12:55;;;;;;;3.55;1.87;;;;;;;23.58;41.02;100760.81;2296299;76;49869;-77
2022/05/22 16:15:57;;;;;;;3.30;1.75;;;;;;;23.59;41.00;100763.80;2305343;76;49501;-77
2022/05/22 16:19:00;;;;;;;4.65;1.75;;;;;;;23.62;41.01;100769.30;2342291;75;51368;-77
2022/05/22 16:22:02;;;;;;;3.12;1.70;;;;;;;23.61;40.94;100759.02;2304607;76;51346;-77
2022/05/22 16:25:04;;;;;;;2.75;1.62;;;;;;;23.61;40.96;100767.12;2342125;76;50163;-76
2022/05/22 16:28:07;;;;;;;2.52;1.70;;;;;;;23.60;41.04;100754.64;2342202;75;51629;-77
2022/05/22 16:31:12;;;;;;;3.35;1.65;;;;;;;23.61;40.91;100757.67;2271379;76;49592;-77
2022/05/22 16:34:16;;;;;;;4.72;1.70;;;;;;;23.60;40.89;100758.70;2342086;76;52831;-77
2022/05/22 16:37:19;;;;;;;4.07;1.87;;;;;;;23.60;40.89;100753.82;2342503;76;50713;-76
2022/05/22 16:40:21;;;;;;;3.08;1.80;;;;;;;23.56;41.01;100741.80;2296547;76;52452;-77
2022/05/22 16:43:23;;;;;;;3.70;1.70;;;;;;;23.59;40.92;100744.89;2342041;76;50743;-76
2022/05/22 16:46:26;;;;;;;3.08;1.70;;;;;;;23.59;40.99;100742.20;2322328;76;51484;-77
2022/05/22 16:53:06;;;;;;;4.65;1.85;;;;;;;23.59;40.92;100750.30;2325443;76;22366;-77
2022/05/22 16:56:09;;;;;;;3.40;1.80;;;;;;;23.59;40.86;100742.20;2278886;76;50946;-76
2022/05/22 16:59:11;;;;;;;2.83;1.98;;;;;;;23.57;40.94;100741.58;2322227;76;52438;-77
2022/05/22 17:02:14;;;;;;;2.75;1.90;;;;;;;23.57;40.88;100746.97;2341876;76;52283;-77
2022/05/22 17:05:16;;;;;;;2.95;1.80;;;;;;;23.57;40.93;100746.97;2287176;76;50940;-77
2022/05/22 17:08:21;;;;;;;3.45;1.80;;;;;;;23.56;40.93;100753.95;2288835;76;51369;-77
2022/05/22 17:11:30;;;;;;;;;;;;;;;23.54;40.98;100755.52;2336629;75;51522;-76
2022/05/22 17:14:33;;;;;;;4.37;1.95;;;;;;;23.53;40.72;100757.92;2337269;75;50076;-77
2022/05/22 17:17:36;;;;;;;2.20;1.87;;;;;;;23.53;41.01;100748.46;2334160;76;51495;-77
2022/05/22 17:20:40;;;;;;;2.90;2.00;;;;;;;23.54;40.96;100746.59;2314455;76;51437;-77
2022/05/22 17:23:42;;;;;;;4.87;2.10;;;;;;;23.53;41.14;100748.46;2333969;75;50387;-76
2022/05/22 17:26:44;;;;;;;2.90;2.02;;;;;;;23.53;40.92;100750.31;2334053;75;50315;-77
2022/05/22 17:29:46;;;;;;;3.30;1.90;;;;;;;23.51;41.01;100755.94;2294529;76;50230;-77
2022/05/22 17:32:48;;;;;;;3.77;2.35;;;;;;;23.51;41.12;100753.77;2288613;75;51328;-77
2022/05/22 17:35:50;;;;;;;4.10;1.95;;;;;;;23.50;41.01;100754.80;2334163;75;51456;-77
2022/05/22 17:38:54;;;;;;;3.58;2.12;;;;;;;23.51;41.04;100755.94;2294478;76;52739;-77
2022/05/22 17:41:58;;;;;;;3.12;2.05;;;;;;;23.50;41.01;100752.09;2333817;76;51428;-77
2022/05/22 17:45:00;;;;;;;4.35;2.55;;;;;;;23.49;40.89;100751.27;2334139;76;51613;-77
2022/05/22 17:48:02;;;;;;;5.35;2.50;;;;;;;23.50;40.87;100752.09;2314498;76;50661;-77
2022/05/22 17:51:05;;;;;;;3.40;2.10;;;;;;;23.49;40.92;100752.63;2335204;75;50080;-76
2022/05/22 17:54:09;;;;;;;3.87;2.33;;;;;;;23.49;40.92;100749.92;2294914;76;50062;-76
2022/05/22 17:57:11;;;;;;;3.00;2.22;;;;;;;23.46;40.99;100752.52;2313554;76;22689;-77
2022/05/22 18:00:14;;;;;;;2.90;2.08;;;;;;;23.47;40.96;100753.34;2334660;75;51712;-77
2022/05/22 18:03:16;;;;;;;3.87;2.58;;;;;;;23.46;40.99;100756.58;2285328;76;49883;-77
2022/05/22 18:06:18;;;;;;;2.67;2.17;;;;;;;23.44;41.12;100750.55;2309433;76;51555;-77
2022/05/22 18:09:22;;;;;;;3.15;2.55;;;;;;;23.42;41.04;100752.63;2307541;75;50573;-77
2022/05/22 18:16:03;;;;;;;11.25;2.67;;;;;;;23.40;41.06;100755.23;2357707;74;22359;-77
2022/05/22 18:19:05;;;;;;;10.32;2.72;;;;;;;23.42;41.30;100759.91;2311803;75;50905;-77
2022/05/22 18:22:16;;;;;;;10.10;3.70;;;;;;;23.44;41.42;100753.78;2313962;75;50292;-76
2022/05/22 18:25:29;;;;;;;10.90;2.90;;;;;;;23.40;41.71;100761.48;2362618;73;51402;-76
2022/05/22 18:28:35;;;;;;;20.02;3.70;;;;;;;23.40;41.83;100761.48;2371257;74;52578;-75
2022/05/22 18:31:36;;;;;;;;;;;;;;;23.41;41.99;100756.91;2399408;74;51555;-78
2022/05/22 18:34:39;;;;;;;17.82;4.45;;;;;;;23.41;42.40;100760.96;2397570;74;51498;-75
2022/05/22 18:37:41;;;;;;;15.63;3.80;;;;;;;23.41;42.45;100757.73;2278322;76;52439;-76
2022/05/22 18:40:44;;;;;;;17.40;4.03;;;;;;;23.41;42.10;100761.78;2304351;75;51381;-76
2022/05/22 18:43:46;;;;;;;15.10;3.75;;;;;;;23.44;42.33;100761.88;2359656;75;50623;-76
2022/05/22 18:46:49;;;;;;;19.35;4.45;;;;;;;23.41;42.32;100766.36;2359899;75;51469;-76
2022/05/22 18:49:51;;;;;;;12.20;3.60;;;;;;;23.39;42.41;100763.03;2360018;74;50640;-76
2022/05/22 18:52:53;;;;;;;13.90;4.33;;;;;;;23.40;42.30;100765.54;2343991;75;50929;-76
2022/05/22 18:55:57;;;;;;;19.23;4.05;;;;;;;23.41;42.26;100763.66;2359242;75;51302;-76
2022/05/22 18:58:59;;;;;;;16.77;4.12;;;;;;;23.44;42.12;100755.13;2348232;74;50693;-76
2022/05/22 19:02:02;;;;;;;16.70;4.08;;;;;;;23.48;42.07;100763.95;2283906;74;50279;-76
2022/05/22 19:05:04;;;;;;;22.52;4.70;;;;;;;23.44;42.14;100759.18;2353678;74;51567;-75
2022/05/22 19:08:08;;;;;;;23.92;4.53;;;;;;;23.40;42.48;100760.63;2325919;75;51463;-75
2022/05/22 19:11:12;;;;;;;22.22;4.67;;;;;;;23.41;43.08;100761.78;2303130;75;50570;-75
2022/05/22 19:14:14;;;;;;;22.40;4.28;;;;;;;23.43;42.90;100762.41;2350193;74;50687;-75
2022/05/22 19:17:18;;;;;;;17.32;4.08;;;;;;;23.45;43.03;100760.83;2348066;74;51329;-75
2022/05/22 19:20:20;;;;;;;24.52;5.12;;;;;;;23.45;43.30;100751.38;2355287;75;51444;-74
2022/05/22 19:23:22;;;;;;;20.97;4.10;;;;;;;23.51;43.00;100762.70;2306761;75;50198;-75
2022/05/22 19:26:25;;;;;;;40.28;5.25;;;;;;;23.44;43.76;100764.58;2240708;75;49451;-76
2022/05/22 19:29:27;;;;;;;27.85;5.37;;;;;;;23.43;44.77;100766.98;2342932;75;50660;-77
2022/05/22 19:32:29;;;;;;;45.50;5.78;;;;;;;23.45;45.84;100767.58;2319071;75;50919;-77
2022/05/22 19:35:31;;;;;;;38.00;5.17;;;;;;;23.45;46.17;100767.58;2324800;75;50308;-76
2022/05/22 19:38:33;;;;;;;35.80;6.22;;;;;;;23.46;45.99;100773.30;2350792;74;50263;-76
2022/05/22 19:44:58;;;;;;;27.90;5.58;;;;;;;23.53;46.78;100776.82;2359642;75;22270;-77
2022/05/22 19:48:04;;;;;;;35.80;5.67;;;;;;;23.56;47.74;100771.52;2359372;74;51977;-78
2022/05/22 19:51:05;;;;;;;;;;;;;;;23.54;48.15;100775.77;2327452;76;51628;-78
2022/05/22 20:00:49;;;;;;;27.50;6.03;;;;;;;23.79;47.99;100771.86;2359652;74;22336;-74
2022/05/22 20:03:52;;;;;;;21.70;5.15;;;;;;;23.62;48.16;100768.77;2353829;75;51500;-72
2022/05/22 20:06:54;;;;;;;28.00;5.30;;;;;;;23.59;48.11;100769.20;2324760;75;50642;-75
2022/05/22 20:09:56;;;;;;;21.93;5.25;;;;;;;23.61;48.37;100767.62;2351330;75;51045;-75
2022/05/22 20:13:05;;;;;;;18.82;4.90;;;;;;;23.65;49.26;100764.81;2343858;74;51476;-75
2022/05/22 20:16:03;;;;;;;17.92;4.95;;;;;;;23.58;49.49;100762.16;2333883;75;22323;-73
2022/05/22 20:19:11;;;;;;;31.45;5.37;;;;;;;23.63;49.77;100763.66;2328313;75;51318;-74
2022/05/22 20:22:13;;;;;;;38.78;7.35;;;;;;;23.61;49.64;100756.32;2357035;74;51568;-75
2022/05/22 20:25:16;;;;;;;29.35;5.47;;;;;;;23.63;49.75;100758.26;2319307;75;51552;-76
2022/05/22 20:28:27;;;;;;;36.20;7.75;;;;;;;23.64;50.34;100750.48;2283547;76;51451;-74
2022/05/22 20:31:30;;;;;;;34.98;6.35;;;;;;;23.69;50.42;100754.72;2344514;74;51296;-74
2022/05/22 20:34:32;;;;;;;22.55;5.95;;;;;;;23.62;50.21;100758.49;2307339;75;53017;-74
2022/05/22 20:37:35;;;;;;;25.55;5.45;;;;;;;23.61;50.32;100755.47;2335093;75;50360;-74
2022/05/22 20:40:38;;;;;;;28.92;5.92;;;;;;;23.64;50.02;100757.77;2326748;75;50333;-74
2022/05/22 20:43:46;;;;;;;36.88;6.05;;;;;;;23.66;50.87;100755.16;2332859;75;50057;-73
2022/05/22 20:46:48;;;;;;;19.02;5.42;;;;;;;23.69;50.76;100756.08;2319807;75;50704;-74
2022/05/22 20:49:51;;;;;;;23.12;5.83;;;;;;;23.73;50.43;100749.73;2355849;74;50597;-75
2022/05/22 20:52:54;;;;;;;18.37;5.08;;;;;;;23.68;50.57;100754.40;2308937;75;50245;-74
2022/05/22 20:59:25;;;;;;;25.45;5.28;;;;;;;23.67;51.09;100741.13;2329255;75;22285;-76
2022/05/22 21:02:27;;;;;;;22.20;5.55;;;;;;;23.65;51.52;100737.80;2348129;74;51490;-75
2022/05/22 21:05:29;;;;;;;23.85;5.80;;;;;;;23.63;51.39;100743.41;2364340;74;51464;-75
2022/05/22 21:08:33;;;;;;;19.17;4.95;;;;;;;23.61;51.57;100744.16;2332740;74;50769;-74
2022/05/22 21:11:35;;;;;;;19.62;5.15;;;;;;;23.64;51.86;100738.86;2341466;76;51492;-75
2022/05/22 21:14:42;;;;;;;17.20;5.03;;;;;;;23.69;51.72;100739.05;2374269;74;50124;-76
2022/05/22 21:17:43;;;;;;;19.77;5.17;;;;;;;23.68;51.77;100737.36;2324725;74;22260;-75
2022/05/22 21:20:46;;;;;;;21.10;5.30;;;;;;;23.66;52.12;100738.95;2367030;74;51511;-76
2022/05/22 21:30:39;;;;;;;12.28;5.05;;;;;;;23.76;51.63;100726.86;2363324;74;22287;-76
2022/05/22 21:33:41;;;;;;;16.57;5.15;;;;;;;23.69;52.18;100724.18;2306511;74;50075;-76
2022/05/22 21:36:43;;;;;;;14.58;4.72;;;;;;;23.65;52.63;100729.17;2349796;74;51622;-77
2022/05/22 21:39:45;;;;;;;19.20;4.62;;;;;;;23.63;52.24;100729.90;2327027;74;51503;-76
